sensor_id;sensor_type;location;lat;lon;timestamp;pressure;altitude;pressure_sealevel;temperature;humidity
80627;BME280;69982;51.758;5.784;2023-09-30T00:00:59;102443.41;;;14.42;72.73
80627;BME280;69982;51.758;5.784;2023-09-30T00:03:31;102452.96;;;14.41;72.86
80627;BME280;69982;51.758;5.784;2023-09-30T00:05:59;102456.86;;;14.40;72.98
80627;BME280;69982;51.758;5.784;2023-09-30T00:08:26;102457.48;;;14.41;72.84
80627;BME280;69982;51.758;5.784;2023-09-30T00:10:55;102449.80;;;14.43;72.85
80627;BME280;69982;51.758;5.784;2023-09-30T00:13:23;102444.59;;;14.45;72.84
80627;BME280;69982;51.758;5.784;2023-09-30T00:15:51;102444.36;;;14.45;72.96
80627;BME280;69982;51.758;5.784;2023-09-30T00:18:19;102459.55;;;14.44;73.01
80627;BME280;69982;51.758;5.784;2023-09-30T00:20:47;102474.05;;;14.45;73.10
80627;BME280;69982;51.758;5.784;2023-09-30T00:23:15;102473.23;;;14.48;73.23
80627;BME280;69982;51.758;5.784;2023-09-30T00:25:43;102470.44;;;14.48;73.25
80627;BME280;69982;51.758;5.784;2023-09-30T00:28:12;102469.95;;;14.49;73.33
80627;BME280;69982;51.758;5.784;2023-09-30T00:30:39;102462.86;;;14.49;73.31
80627;BME280;69982;51.758;5.784;2023-09-30T00:33:07;102460.88;;;14.53;73.30
80627;BME280;69982;51.758;5.784;2023-09-30T00:35:35;102464.92;;;14.53;73.25
80627;BME280;69982;51.758;5.784;2023-09-30T00:38:04;102469.14;;;14.49;73.48
80627;BME280;69982;51.758;5.784;2023-09-30T00:40:32;102472.38;;;14.44;73.44
80627;BME280;69982;51.758;5.784;2023-09-30T00:42:59;102465.14;;;14.37;73.32
80627;BME280;69982;51.758;5.784;2023-09-30T00:45:28;102470.91;;;14.40;73.28
80627;BME280;69982;51.758;5.784;2023-09-30T00:47:56;102480.74;;;14.40;73.24
80627;BME280;69982;51.758;5.784;2023-09-30T00:50:24;102495.80;;;14.39;73.35
80627;BME280;69982;51.758;5.784;2023-09-30T00:52:52;102500.28;;;14.39;73.33
80627;BME280;69982;51.758;5.784;2023-09-30T00:55:21;102498.89;;;14.40;73.36
80627;BME280;69982;51.758;5.784;2023-09-30T00:57:49;102493.88;;;14.42;73.36
80627;BME280;69982;51.758;5.784;2023-09-30T01:00:17;102481.41;;;14.41;73.27
80627;BME280;69982;51.758;5.784;2023-09-30T01:02:45;102473.47;;;14.40;73.47
80627;BME280;69982;51.758;5.784;2023-09-30T01:05:13;102480.05;;;14.36;73.54
80627;BME280;69982;51.758;5.784;2023-09-30T01:07:41;102479.23;;;14.35;73.58
80627;BME280;69982;51.758;5.784;2023-09-30T01:10:08;102473.44;;;14.29;73.48
80627;BME280;69982;51.758;5.784;2023-09-30T01:12:36;102487.36;;;14.26;73.49
80627;BME280;69982;51.758;5.784;2023-09-30T01:15:05;102487.45;;;14.25;73.36
80627;BME280;69982;51.758;5.784;2023-09-30T01:17:34;102497.84;;;14.25;73.34
80627;BME280;69982;51.758;5.784;2023-09-30T01:20:02;102511.41;;;14.26;73.31
80627;BME280;69982;51.758;5.784;2023-09-30T01:22:34;102509.13;;;14.29;73.39
80627;BME280;69982;51.758;5.784;2023-09-30T01:25:01;102496.83;;;14.32;73.44
80627;BME280;69982;51.758;5.784;2023-09-30T01:27:29;102498.45;;;14.32;73.45
80627;BME280;69982;51.758;5.784;2023-09-30T01:29:57;102504.73;;;14.33;73.34
80627;BME280;69982;51.758;5.784;2023-09-30T01:32:25;102516.05;;;14.33;73.29
80627;BME280;69982;51.758;5.784;2023-09-30T01:34:53;102526.85;;;14.29;73.26
80627;BME280;69982;51.758;5.784;2023-09-30T01:37:21;102533.88;;;14.23;73.14
80627;BME280;69982;51.758;5.784;2023-09-30T01:39:49;102533.09;;;14.20;73.18
80627;BME280;69982;51.758;5.784;2023-09-30T01:42:18;102529.81;;;14.17;73.32
80627;BME280;69982;51.758;5.784;2023-09-30T01:44:45;102527.86;;;14.18;73.23
80627;BME280;69982;51.758;5.784;2023-09-30T01:47:13;102522.61;;;14.19;73.35
80627;BME280;69982;51.758;5.784;2023-09-30T01:49:40;102521.43;;;14.22;73.40
80627;BME280;69982;51.758;5.784;2023-09-30T01:52:08;102520.25;;;14.23;73.21
80627;BME280;69982;51.758;5.784;2023-09-30T01:54:36;102511.52;;;14.25;73.21
80627;BME280;69982;51.758;5.784;2023-09-30T01:57:04;102506.87;;;14.24;73.13
80627;BME280;69982;51.758;5.784;2023-09-30T01:59:31;102495.27;;;14.21;73.19
80627;BME280;69982;51.758;5.784;2023-09-30T02:01:59;102493.40;;;14.18;73.20
80627;BME280;69982;51.758;5.784;2023-09-30T02:04:27;102487.44;;;14.12;73.28
80627;BME280;69982;51.758;5.784;2023-09-30T02:06:54;102494.89;;;14.12;73.21
80627;BME280;69982;51.758;5.784;2023-09-30T02:09:22;102501.11;;;14.10;73.08
80627;BME280;69982;51.758;5.784;2023-09-30T02:11:50;102499.77;;;14.07;73.02
80627;BME280;69982;51.758;5.784;2023-09-30T02:14:17;102502.84;;;14.08;73.03
80627;BME280;69982;51.758;5.784;2023-09-30T02:16:45;102500.25;;;14.08;73.11
80627;BME280;69982;51.758;5.784;2023-09-30T02:19:13;102503.52;;;14.10;73.02
80627;BME280;69982;51.758;5.784;2023-09-30T02:21:41;102507.07;;;14.07;73.18
80627;BME280;69982;51.758;5.784;2023-09-30T02:24:08;102515.45;;;14.05;73.31
80627;BME280;69982;51.758;5.784;2023-09-30T02:26:37;102521.81;;;14.00;73.51
80627;BME280;69982;51.758;5.784;2023-09-30T02:29:06;102519.88;;;13.91;73.36
80627;BME280;69982;51.758;5.784;2023-09-30T02:31:35;102513.80;;;13.83;73.40
80627;BME280;69982;51.758;5.784;2023-09-30T02:34:03;102519.57;;;13.81;73.47
80627;BME280;69982;51.758;5.784;2023-09-30T02:36:30;102528.52;;;13.83;73.51
80627;BME280;69982;51.758;5.784;2023-09-30T02:38:58;102522.76;;;13.86;73.60
80627;BME280;69982;51.758;5.784;2023-09-30T02:41:28;102518.92;;;13.90;73.74
80627;BME280;69982;51.758;5.784;2023-09-30T02:43:56;102515.79;;;13.94;73.78
80627;BME280;69982;51.758;5.784;2023-09-30T02:46:24;102515.48;;;13.99;73.98
80627;BME280;69982;51.758;5.784;2023-09-30T02:48:55;102503.92;;;14.02;73.76
80627;BME280;69982;51.758;5.784;2023-09-30T02:51:23;102499.29;;;14.05;73.88
80627;BME280;69982;51.758;5.784;2023-09-30T02:53:51;102495.41;;;14.02;73.88
80627;BME280;69982;51.758;5.784;2023-09-30T02:56:18;102496.67;;;14.02;73.86
80627;BME280;69982;51.758;5.784;2023-09-30T02:58:47;102491.08;;;13.97;73.90
80627;BME280;69982;51.758;5.784;2023-09-30T03:01:15;102496.28;;;13.98;73.84
80627;BME280;69982;51.758;5.784;2023-09-30T03:03:45;102498.92;;;13.97;73.92
80627;BME280;69982;51.758;5.784;2023-09-30T03:06:13;102493.50;;;13.97;73.97
80627;BME280;69982;51.758;5.784;2023-09-30T03:08:42;102490.53;;;13.99;73.90
80627;BME280;69982;51.758;5.784;2023-09-30T03:11:09;102488.58;;;14.01;73.85
80627;BME280;69982;51.758;5.784;2023-09-30T03:13:37;102492.39;;;14.01;73.93
80627;BME280;69982;51.758;5.784;2023-09-30T03:16:05;102501.55;;;13.98;73.98
80627;BME280;69982;51.758;5.784;2023-09-30T03:18:33;102502.61;;;13.95;73.88
80627;BME280;69982;51.758;5.784;2023-09-30T03:21:02;102507.48;;;13.91;73.86
80627;BME280;69982;51.758;5.784;2023-09-30T03:23:36;102501.77;;;13.86;73.91
80627;BME280;69982;51.758;5.784;2023-09-30T03:26:07;102499.52;;;13.80;74.09
80627;BME280;69982;51.758;5.784;2023-09-30T03:28:38;102495.96;;;13.75;74.27
80627;BME280;69982;51.758;5.784;2023-09-30T03:31:07;102497.91;;;13.74;74.40
80627;BME280;69982;51.758;5.784;2023-09-30T03:33:36;102494.36;;;13.71;74.48
80627;BME280;69982;51.758;5.784;2023-09-30T03:36:04;102505.54;;;13.72;74.57
80627;BME280;69982;51.758;5.784;2023-09-30T03:38:31;102503.06;;;13.75;74.81
80627;BME280;69982;51.758;5.784;2023-09-30T03:41:00;102502.57;;;13.79;74.97
80627;BME280;69982;51.758;5.784;2023-09-30T03:43:28;102495.52;;;13.80;75.07
80627;BME280;69982;51.758;5.784;2023-09-30T03:45:55;102495.66;;;13.82;75.30
80627;BME280;69982;51.758;5.784;2023-09-30T03:48:25;102496.18;;;13.81;75.39
80627;BME280;69982;51.758;5.784;2023-09-30T03:50:54;102498.27;;;13.81;75.39
80627;BME280;69982;51.758;5.784;2023-09-30T03:53:21;102497.30;;;13.80;75.42
80627;BME280;69982;51.758;5.784;2023-09-30T03:55:53;102500.98;;;13.82;75.51
80627;BME280;69982;51.758;5.784;2023-09-30T03:58:21;102497.95;;;13.85;75.42
80627;BME280;69982;51.758;5.784;2023-09-30T04:00:49;102494.13;;;13.86;75.57
80627;BME280;69982;51.758;5.784;2023-09-30T04:03:19;102495.48;;;13.91;75.40
80627;BME280;69982;51.758;5.784;2023-09-30T04:05:48;102496.17;;;13.95;75.45
80627;BME280;69982;51.758;5.784;2023-09-30T04:08:18;102494.20;;;14.03;75.34
80627;BME280;69982;51.758;5.784;2023-09-30T04:10:45;102491.91;;;14.07;75.13
80627;BME280;69982;51.758;5.784;2023-09-30T04:13:13;102486.12;;;14.11;75.10
80627;BME280;69982;51.758;5.784;2023-09-30T04:15:41;102494.49;;;14.11;75.02
80627;BME280;69982;51.758;5.784;2023-09-30T04:18:09;102497.25;;;14.11;74.90
80627;BME280;69982;51.758;5.784;2023-09-30T04:20:37;102498.09;;;14.09;74.86
80627;BME280;69982;51.758;5.784;2023-09-30T04:23:07;102500.64;;;14.13;74.83
80627;BME280;69982;51.758;5.784;2023-09-30T04:25:37;102500.89;;;14.16;74.83
80627;BME280;69982;51.758;5.784;2023-09-30T04:28:05;102502.48;;;14.18;74.78
80627;BME280;69982;51.758;5.784;2023-09-30T04:30:33;102507.48;;;14.21;74.86
80627;BME280;69982;51.758;5.784;2023-09-30T04:33:01;102506.50;;;14.24;74.89
80627;BME280;69982;51.758;5.784;2023-09-30T04:35:28;102501.23;;;14.25;74.76
80627;BME280;69982;51.758;5.784;2023-09-30T04:37:58;102504.99;;;14.26;74.72
80627;BME280;69982;51.758;5.784;2023-09-30T04:40:28;102501.52;;;14.24;74.63
80627;BME280;69982;51.758;5.784;2023-09-30T04:42:57;102509.61;;;14.22;74.69
80627;BME280;69982;51.758;5.784;2023-09-30T04:45:27;102514.45;;;14.17;74.61
80627;BME280;69982;51.758;5.784;2023-09-30T04:47:55;102524.83;;;14.13;74.62
80627;BME280;69982;51.758;5.784;2023-09-30T04:50:25;102524.80;;;14.10;74.74
80627;BME280;69982;51.758;5.784;2023-09-30T04:52:53;102521.29;;;14.10;74.97
80627;BME280;69982;51.758;5.784;2023-09-30T04:55:21;102517.18;;;14.10;74.95
80627;BME280;69982;51.758;5.784;2023-09-30T04:57:49;102513.61;;;14.11;74.92
80627;BME280;69982;51.758;5.784;2023-09-30T05:00:20;102521.73;;;14.17;74.78
80627;BME280;69982;51.758;5.784;2023-09-30T05:02:52;102526.29;;;14.23;74.86
80627;BME280;69982;51.758;5.784;2023-09-30T05:05:20;102530.33;;;14.26;74.94
80627;BME280;69982;51.758;5.784;2023-09-30T05:07:47;102527.73;;;14.26;74.92
80627;BME280;69982;51.758;5.784;2023-09-30T05:10:15;102535.39;;;14.26;74.75
80627;BME280;69982;51.758;5.784;2023-09-30T05:12:44;102538.80;;;14.25;74.74
80627;BME280;69982;51.758;5.784;2023-09-30T05:15:15;102541.64;;;14.24;74.53
80627;BME280;69982;51.758;5.784;2023-09-30T05:17:45;102534.77;;;14.23;74.45
80627;BME280;69982;51.758;5.784;2023-09-30T05:20:13;102532.70;;;14.24;74.47
80627;BME280;69982;51.758;5.784;2023-09-30T05:22:41;102540.17;;;14.26;74.65
80627;BME280;69982;51.758;5.784;2023-09-30T05:25:14;102540.33;;;14.29;74.52
80627;BME280;69982;51.758;5.784;2023-09-30T05:27:45;102542.78;;;14.30;74.60
80627;BME280;69982;51.758;5.784;2023-09-30T05:30:16;102540.64;;;14.31;74.52
80627;BME280;69982;51.758;5.784;2023-09-30T05:32:44;102543.80;;;14.30;74.54
80627;BME280;69982;51.758;5.784;2023-09-30T05:35:14;102543.52;;;14.23;74.53
80627;BME280;69982;51.758;5.784;2023-09-30T05:37:44;102542.73;;;14.17;74.61
80627;BME280;69982;51.758;5.784;2023-09-30T05:40:15;102543.27;;;14.11;74.57
80627;BME280;69982;51.758;5.784;2023-09-30T05:42:58;102541.17;;;14.08;74.50
80627;BME280;69982;51.758;5.784;2023-09-30T05:45:28;102539.64;;;14.07;74.52
80627;BME280;69982;51.758;5.784;2023-09-30T05:47:58;102538.35;;;14.08;74.52
80627;BME280;69982;51.758;5.784;2023-09-30T05:50:30;102543.84;;;14.07;74.65
80627;BME280;69982;51.758;5.784;2023-09-30T05:52:59;102546.90;;;14.08;74.49
80627;BME280;69982;51.758;5.784;2023-09-30T05:55:26;102550.11;;;14.06;74.55
80627;BME280;69982;51.758;5.784;2023-09-30T05:57:55;102551.59;;;14.04;74.51
80627;BME280;69982;51.758;5.784;2023-09-30T06:00:23;102555.59;;;14.02;74.46
80627;BME280;69982;51.758;5.784;2023-09-30T06:02:59;102553.87;;;13.98;74.58
80627;BME280;69982;51.758;5.784;2023-09-30T06:05:28;102553.22;;;13.91;74.78
80627;BME280;69982;51.758;5.784;2023-09-30T06:08:01;102548.58;;;13.83;75.07
80627;BME280;69982;51.758;5.784;2023-09-30T06:10:32;102539.84;;;13.77;74.95
80627;BME280;69982;51.758;5.784;2023-09-30T06:13:00;102544.94;;;13.73;75.35
80627;BME280;69982;51.758;5.784;2023-09-30T06:15:28;102544.73;;;13.70;75.51
80627;BME280;69982;51.758;5.784;2023-09-30T06:17:56;102544.83;;;13.69;75.88
80627;BME280;69982;51.758;5.784;2023-09-30T06:20:26;102541.41;;;13.68;76.04
80627;BME280;69982;51.758;5.784;2023-09-30T06:22:55;102551.86;;;13.69;76.14
80627;BME280;69982;51.758;5.784;2023-09-30T06:25:23;102559.05;;;13.70;76.22
80627;BME280;69982;51.758;5.784;2023-09-30T06:27:51;102560.25;;;13.71;76.52
80627;BME280;69982;51.758;5.784;2023-09-30T06:30:19;102548.61;;;13.71;76.59
80627;BME280;69982;51.758;5.784;2023-09-30T06:32:48;102536.84;;;13.69;76.78
80627;BME280;69982;51.758;5.784;2023-09-30T06:35:16;102528.80;;;13.69;76.75
80627;BME280;69982;51.758;5.784;2023-09-30T06:37:44;102527.37;;;13.72;76.90
80627;BME280;69982;51.758;5.784;2023-09-30T06:40:15;102530.16;;;13.76;77.07
80627;BME280;69982;51.758;5.784;2023-09-30T06:42:43;102538.69;;;13.79;77.15
80627;BME280;69982;51.758;5.784;2023-09-30T06:45:11;102543.89;;;13.86;77.20
80627;BME280;69982;51.758;5.784;2023-09-30T06:47:40;102547.67;;;13.88;77.47
80627;BME280;69982;51.758;5.784;2023-09-30T06:50:10;102561.55;;;13.92;77.72
80627;BME280;69982;51.758;5.784;2023-09-30T06:52:41;102565.98;;;13.95;77.86
80627;BME280;69982;51.758;5.784;2023-09-30T06:55:10;102568.30;;;13.97;77.78
80627;BME280;69982;51.758;5.784;2023-09-30T06:57:37;102569.77;;;13.99;77.98
80627;BME280;69982;51.758;5.784;2023-09-30T07:00:10;102575.89;;;14.03;78.07
80627;BME280;69982;51.758;5.784;2023-09-30T07:02:39;102583.04;;;14.07;78.14
80627;BME280;69982;51.758;5.784;2023-09-30T07:05:12;102587.98;;;14.12;78.31
80627;BME280;69982;51.758;5.784;2023-09-30T07:07:41;102590.61;;;14.19;78.43
80627;BME280;69982;51.758;5.784;2023-09-30T07:10:11;102598.17;;;14.29;78.54
80627;BME280;69982;51.758;5.784;2023-09-30T07:12:39;102600.52;;;14.35;78.55
80627;BME280;69982;51.758;5.784;2023-09-30T07:15:08;102603.56;;;14.40;78.72
80627;BME280;69982;51.758;5.784;2023-09-30T07:17:36;102605.71;;;14.44;78.69
80627;BME280;69982;51.758;5.784;2023-09-30T07:20:05;102601.80;;;14.45;78.77
80627;BME280;69982;51.758;5.784;2023-09-30T07:22:33;102608.39;;;14.52;78.61
80627;BME280;69982;51.758;5.784;2023-09-30T07:25:07;102616.86;;;14.57;78.59
80627;BME280;69982;51.758;5.784;2023-09-30T07:27:36;102617.02;;;14.61;78.58
80627;BME280;69982;51.758;5.784;2023-09-30T07:30:04;102617.98;;;14.66;78.50
80627;BME280;69982;51.758;5.784;2023-09-30T07:32:35;102619.23;;;14.70;78.35
80627;BME280;69982;51.758;5.784;2023-09-30T07:35:02;102621.41;;;14.73;78.45
80627;BME280;69982;51.758;5.784;2023-09-30T07:37:30;102632.73;;;14.77;78.33
80627;BME280;69982;51.758;5.784;2023-09-30T07:39:58;102638.17;;;14.83;78.40
80627;BME280;69982;51.758;5.784;2023-09-30T07:42:26;102637.23;;;14.89;78.44
80627;BME280;69982;51.758;5.784;2023-09-30T07:44:53;102643.27;;;14.96;78.61
80627;BME280;69982;51.758;5.784;2023-09-30T07:47:21;102643.61;;;15.04;78.78
80627;BME280;69982;51.758;5.784;2023-09-30T07:49:49;102647.58;;;15.11;78.75
80627;BME280;69982;51.758;5.784;2023-09-30T07:52:17;102651.30;;;15.16;78.70
80627;BME280;69982;51.758;5.784;2023-09-30T07:54:45;102656.66;;;15.23;78.58
80627;BME280;69982;51.758;5.784;2023-09-30T07:57:13;102658.77;;;15.27;78.52
80627;BME280;69982;51.758;5.784;2023-09-30T07:59:40;102657.19;;;15.35;78.52
80627;BME280;69982;51.758;5.784;2023-09-30T08:02:08;102656.02;;;15.47;78.37
80627;BME280;69982;51.758;5.784;2023-09-30T08:04:36;102654.08;;;15.60;78.51
80627;BME280;69982;51.758;5.784;2023-09-30T08:07:04;102653.17;;;15.72;78.19
80627;BME280;69982;51.758;5.784;2023-09-30T08:09:32;102643.13;;;15.84;78.07
80627;BME280;69982;51.758;5.784;2023-09-30T08:12:00;102641.98;;;15.95;77.56
80627;BME280;69982;51.758;5.784;2023-09-30T08:14:28;102633.34;;;16.03;77.03
80627;BME280;69982;51.758;5.784;2023-09-30T08:16:55;102637.95;;;16.09;76.99
80627;BME280;69982;51.758;5.784;2023-09-30T08:19:23;102637.85;;;16.19;77.02
80627;BME280;69982;51.758;5.784;2023-09-30T08:21:51;102632.85;;;16.32;76.87
80627;BME280;69982;51.758;5.784;2023-09-30T08:24:19;102635.40;;;16.44;76.62
80627;BME280;69982;51.758;5.784;2023-09-30T08:26:47;102634.11;;;16.56;76.40
80627;BME280;69982;51.758;5.784;2023-09-30T08:29:15;102637.30;;;16.68;76.15
80627;BME280;69982;51.758;5.784;2023-09-30T08:31:42;102632.20;;;16.81;75.94
80627;BME280;69982;51.758;5.784;2023-09-30T08:34:10;102630.65;;;16.94;75.79
80627;BME280;69982;51.758;5.784;2023-09-30T08:36:37;102623.42;;;17.05;75.45
80627;BME280;69982;51.758;5.784;2023-09-30T08:39:05;102614.02;;;17.19;75.26
80627;BME280;69982;51.758;5.784;2023-09-30T08:41:35;102613.74;;;17.32;74.74
80627;BME280;69982;51.758;5.784;2023-09-30T08:44:04;102617.96;;;17.45;74.52
80627;BME280;69982;51.758;5.784;2023-09-30T08:46:33;102623.88;;;17.62;73.79
80627;BME280;69982;51.758;5.784;2023-09-30T08:49:02;102624.23;;;17.71;73.15
80627;BME280;69982;51.758;5.784;2023-09-30T08:51:31;102620.22;;;17.83;73.39
80627;BME280;69982;51.758;5.784;2023-09-30T08:54:00;102625.48;;;17.93;73.23
80627;BME280;69982;51.758;5.784;2023-09-30T08:56:31;102624.46;;;18.02;72.50
80627;BME280;69982;51.758;5.784;2023-09-30T08:59:03;102625.52;;;18.14;72.17
80627;BME280;69982;51.758;5.784;2023-09-30T09:01:31;102621.39;;;18.26;71.88
80627;BME280;69982;51.758;5.784;2023-09-30T09:03:58;102619.45;;;18.42;71.27
80627;BME280;69982;51.758;5.784;2023-09-30T09:06:26;102628.44;;;18.54;71.15
80627;BME280;69982;51.758;5.784;2023-09-30T09:09:12;102632.36;;;18.67;71.23
80627;BME280;69982;51.758;5.784;2023-09-30T09:11:40;102629.91;;;18.82;70.96
80627;BME280;69982;51.758;5.784;2023-09-30T09:14:08;102633.04;;;18.94;70.66
80627;BME280;69982;51.758;5.784;2023-09-30T09:16:36;102629.55;;;19.05;70.10
80627;BME280;69982;51.758;5.784;2023-09-30T09:19:13;102628.70;;;19.12;69.59
80627;BME280;69982;51.758;5.784;2023-09-30T09:21:57;102642.77;;;19.21;69.50
80627;BME280;69982;51.758;5.784;2023-09-30T09:24:32;102642.55;;;19.30;68.90
80627;BME280;69982;51.758;5.784;2023-09-30T09:27:18;102644.55;;;19.36;68.48
80627;BME280;69982;51.758;5.784;2023-09-30T09:29:48;102654.11;;;19.46;68.19
80627;BME280;69982;51.758;5.784;2023-09-30T09:32:16;102654.30;;;19.54;68.28
80627;BME280;69982;51.758;5.784;2023-09-30T09:34:45;102654.86;;;19.65;67.49
80627;BME280;69982;51.758;5.784;2023-09-30T09:37:27;102656.73;;;19.75;66.91
80627;BME280;69982;51.758;5.784;2023-09-30T09:39:56;102660.48;;;19.84;67.06
80627;BME280;69982;51.758;5.784;2023-09-30T09:42:29;102665.59;;;19.95;65.90
80627;BME280;69982;51.758;5.784;2023-09-30T09:45:00;102668.88;;;20.01;65.32
80627;BME280;69982;51.758;5.784;2023-09-30T09:47:32;102671.98;;;20.11;65.16
80627;BME280;69982;51.758;5.784;2023-09-30T09:50:03;102674.95;;;20.18;64.70
80627;BME280;69982;51.758;5.784;2023-09-30T09:52:33;102675.23;;;20.26;65.06
80627;BME280;69982;51.758;5.784;2023-09-30T09:55:10;102675.46;;;20.36;65.00
80627;BME280;69982;51.758;5.784;2023-09-30T09:57:39;102671.08;;;20.47;64.73
80627;BME280;69982;51.758;5.784;2023-09-30T10:00:08;102663.73;;;20.61;63.96
80627;BME280;69982;51.758;5.784;2023-09-30T10:02:41;102668.25;;;20.77;63.52
80627;BME280;69982;51.758;5.784;2023-09-30T10:05:10;102673.55;;;20.89;62.50
80627;BME280;69982;51.758;5.784;2023-09-30T10:08:03;102679.85;;;20.96;61.45
80627;BME280;69982;51.758;5.784;2023-09-30T10:10:30;102676.38;;;21.00;61.27
80627;BME280;69982;51.758;5.784;2023-09-30T10:13:03;102676.63;;;21.06;60.75
80627;BME280;69982;51.758;5.784;2023-09-30T10:18:03;102675.09;;;21.14;59.99
80627;BME280;69982;51.758;5.784;2023-09-30T10:20:32;102685.76;;;21.17;59.17
80627;BME280;69982;51.758;5.784;2023-09-30T10:23:21;102691.55;;;21.22;59.08
80627;BME280;69982;51.758;5.784;2023-09-30T10:25:52;102683.98;;;21.28;59.04
80627;BME280;69982;51.758;5.784;2023-09-30T10:28:36;102672.03;;;21.33;59.08
80627;BME280;69982;51.758;5.784;2023-09-30T10:31:12;102664.64;;;21.41;59.64
80627;BME280;69982;51.758;5.784;2023-09-30T10:34:19;102658.29;;;21.54;58.72
80627;BME280;69982;51.758;5.784;2023-09-30T10:36:47;102656.29;;;21.60;57.61
80627;BME280;69982;51.758;5.784;2023-09-30T10:42:49;102639.02;;;21.72;56.14
80627;BME280;69982;51.758;5.784;2023-09-30T10:45:42;102631.34;;;21.78;57.45
80627;BME280;69982;51.758;5.784;2023-09-30T10:53:46;102629.98;;;22.13;55.70
80627;BME280;69982;51.758;5.784;2023-09-30T10:56:15;102628.59;;;22.25;55.06
80627;BME280;69982;51.758;5.784;2023-09-30T10:58:47;102632.90;;;22.37;55.01
80627;BME280;69982;51.758;5.784;2023-09-30T11:01:21;102632.84;;;22.45;54.86
80627;BME280;69982;51.758;5.784;2023-09-30T11:03:55;102633.05;;;22.56;54.74
80627;BME280;69982;51.758;5.784;2023-09-30T11:06:27;102633.64;;;22.67;53.85
80627;BME280;69982;51.758;5.784;2023-09-30T11:08:57;102634.34;;;22.75;53.60
80627;BME280;69982;51.758;5.784;2023-09-30T11:11:52;102636.83;;;22.82;52.94
80627;BME280;69982;51.758;5.784;2023-09-30T11:14:28;102633.83;;;22.84;52.59
80627;BME280;69982;51.758;5.784;2023-09-30T11:17:01;102631.52;;;22.91;52.69
80627;BME280;69982;51.758;5.784;2023-09-30T11:19:46;102635.29;;;23.01;52.55
80627;BME280;69982;51.758;5.784;2023-09-30T11:22:15;102635.45;;;23.07;51.21
80627;BME280;69982;51.758;5.784;2023-09-30T11:24:43;102635.48;;;23.12;51.30
80627;BME280;69982;51.758;5.784;2023-09-30T11:27:11;102635.34;;;23.17;50.38
80627;BME280;69982;51.758;5.784;2023-09-30T11:29:49;102632.90;;;23.19;49.87
80627;BME280;69982;51.758;5.784;2023-09-30T11:32:28;102633.41;;;23.18;50.39
80627;BME280;69982;51.758;5.784;2023-09-30T11:34:57;102631.12;;;23.18;50.53
80627;BME280;69982;51.758;5.784;2023-09-30T11:37:30;102627.60;;;23.13;50.10
80627;BME280;69982;51.758;5.784;2023-09-30T11:40:12;102621.09;;;22.98;49.43
80627;BME280;69982;51.758;5.784;2023-09-30T11:42:41;102621.79;;;22.82;48.49
80627;BME280;69982;51.758;5.784;2023-09-30T11:45:21;102618.00;;;22.72;47.87
80627;BME280;69982;51.758;5.784;2023-09-30T11:47:52;102610.38;;;22.67;48.40
80627;BME280;69982;51.758;5.784;2023-09-30T11:50:20;102600.10;;;22.65;48.95
80627;BME280;69982;51.758;5.784;2023-09-30T11:52:48;102588.55;;;22.67;49.45
80627;BME280;69982;51.758;5.784;2023-09-30T11:55:16;102580.34;;;22.73;49.55
80627;BME280;69982;51.758;5.784;2023-09-30T11:57:44;102586.55;;;22.82;48.82
80627;BME280;69982;51.758;5.784;2023-09-30T12:00:12;102594.14;;;22.90;48.17
80627;BME280;69982;51.758;5.784;2023-09-30T12:02:41;102605.46;;;22.95;48.06
80627;BME280;69982;51.758;5.784;2023-09-30T12:05:09;102608.36;;;22.94;47.56
80627;BME280;69982;51.758;5.784;2023-09-30T12:07:38;102607.24;;;23.01;48.32
80627;BME280;69982;51.758;5.784;2023-09-30T12:10:09;102611.05;;;23.06;48.68
80627;BME280;69982;51.758;5.784;2023-09-30T12:12:37;102611.17;;;23.13;47.71
80627;BME280;69982;51.758;5.784;2023-09-30T12:15:08;102613.86;;;23.13;46.47
80627;BME280;69982;51.758;5.784;2023-09-30T12:17:37;102616.63;;;23.12;47.10
80627;BME280;69982;51.758;5.784;2023-09-30T12:20:07;102616.49;;;23.20;47.64
80627;BME280;69982;51.758;5.784;2023-09-30T12:22:36;102615.95;;;23.35;48.02
80627;BME280;69982;51.758;5.784;2023-09-30T12:25:05;102614.38;;;23.47;46.19
80627;BME280;69982;51.758;5.784;2023-09-30T12:27:34;102602.06;;;23.49;45.57
80627;BME280;69982;51.758;5.784;2023-09-30T12:30:02;102594.73;;;23.52;45.13
80627;BME280;69982;51.758;5.784;2023-09-30T12:32:32;102592.38;;;23.56;45.58
80627;BME280;69982;51.758;5.784;2023-09-30T12:35:00;102588.08;;;23.58;45.39
80627;BME280;69982;51.758;5.784;2023-09-30T12:37:28;102581.13;;;23.59;45.29
80627;BME280;69982;51.758;5.784;2023-09-30T12:39:56;102574.77;;;23.58;46.03
80627;BME280;69982;51.758;5.784;2023-09-30T12:42:24;102569.65;;;23.60;45.96
80627;BME280;69982;51.758;5.784;2023-09-30T12:44:52;102566.48;;;23.59;46.11
80627;BME280;69982;51.758;5.784;2023-09-30T12:47:19;102559.23;;;23.61;46.45
80627;BME280;69982;51.758;5.784;2023-09-30T12:49:47;102553.19;;;23.66;46.05
80627;BME280;69982;51.758;5.784;2023-09-30T12:52:15;102557.65;;;23.61;45.69
80627;BME280;69982;51.758;5.784;2023-09-30T12:54:43;102558.16;;;23.56;45.43
80627;BME280;69982;51.758;5.784;2023-09-30T12:57:11;102558.25;;;23.52;44.96
80627;BME280;69982;51.758;5.784;2023-09-30T12:59:41;102558.02;;;23.46;44.96
80627;BME280;69982;51.758;5.784;2023-09-30T13:02:08;102558.36;;;23.44;45.21
80627;BME280;69982;51.758;5.784;2023-09-30T13:04:37;102560.05;;;23.41;45.76
80627;BME280;69982;51.758;5.784;2023-09-30T13:07:13;102556.38;;;23.40;45.13
80627;BME280;69982;51.758;5.784;2023-09-30T13:09:41;102552.84;;;23.41;45.17
80627;BME280;69982;51.758;5.784;2023-09-30T13:12:10;102551.50;;;23.44;45.35
80627;BME280;69982;51.758;5.784;2023-09-30T13:14:38;102553.85;;;23.50;45.47